createdAt,value
2022-08-23T00:00:26.141Z,-55
2022-08-23T00:01:24.991Z,-56
2022-08-23T00:02:23.424Z,-56
2022-08-23T00:03:21.702Z,-57
2022-08-23T00:04:16.058Z,-55
2022-08-23T00:06:15.709Z,-56
2022-08-23T00:07:10.259Z,-55
2022-08-23T00:08:17.709Z,-55
2022-08-23T00:09:20.666Z,-55
2022-08-23T00:11:15.435Z,-56
2022-08-23T00:13:19.273Z,-55
2022-08-23T00:14:17.405Z,-55
2022-08-23T00:14:45.394Z,-55
2022-08-23T00:15:43.407Z,-54
2022-08-23T00:16:43.522Z,-55
2022-08-23T00:17:40.302Z,-56
2022-08-23T00:18:49.314Z,-57
2022-08-23T00:18:49.585Z,-57
2022-08-23T00:19:43.651Z,-55
2022-08-23T00:21:40.497Z,-55
2022-08-23T00:22:36.006Z,-55
2022-08-23T00:23:36.506Z,-56
2022-08-23T00:24:31.798Z,-56
2022-08-23T00:24:40.770Z,-56
2022-08-23T00:26:31.600Z,-55
2022-08-23T00:27:31.313Z,-55
2022-08-23T00:28:32.513Z,-56
2022-08-23T00:29:37.266Z,-55
2022-08-23T00:31:36.366Z,-56
2022-08-23T00:32:31.425Z,-57
2022-08-23T00:33:33.499Z,-55
2022-08-23T00:34:29.982Z,-56
2022-08-23T00:36:30.111Z,-56
2022-08-23T00:37:33.464Z,-56
2022-08-23T00:38:32.936Z,-55
2022-08-23T00:38:35.262Z,-55
2022-08-23T00:39:36.265Z,-56
2022-08-23T00:41:33.688Z,-56
2022-08-23T00:42:37.367Z,-56
2022-08-23T00:43:33.562Z,-55
2022-08-23T00:44:34.088Z,-55
2022-08-23T00:46:38.943Z,-55
2022-08-23T00:47:36.264Z,-56
2022-08-23T00:48:38.112Z,-55
2022-08-23T00:49:37.578Z,-55
2022-08-23T00:50:34.994Z,-55
2022-08-23T00:51:52.194Z,-55
2022-08-23T00:51:52.648Z,-55
2022-08-23T00:51:53.178Z,-55
2022-08-23T00:52:37.361Z,-55
2022-08-23T00:53:38.211Z,-55
2022-08-23T00:54:38.848Z,-55
2022-08-23T00:56:47.957Z,-54
2022-08-23T00:57:52.759Z,-55
2022-08-23T00:58:53.080Z,-56
2022-08-23T01:00:48.975Z,-56
2022-08-23T01:01:50.646Z,-57
2022-08-23T01:02:47.895Z,-57
2022-08-23T01:03:47.847Z,-56
2022-08-23T01:03:57.125Z,-56
2022-08-23T01:04:04.494Z,-56
2022-08-23T01:05:44.476Z,-58
2022-08-23T01:06:48.811Z,-57
2022-08-23T01:07:44.359Z,-57
2022-08-23T01:08:45.119Z,-55
2022-08-23T01:09:41.337Z,-55
2022-08-23T01:10:41.665Z,-55
2022-08-23T01:11:39.818Z,-55
2022-08-23T01:12:41.626Z,-54
2022-08-23T01:13:39.559Z,-55
2022-08-23T01:14:38.776Z,-55
2022-08-23T01:15:41.620Z,-55
2022-08-23T01:16:41.714Z,-55
2022-08-23T01:17:37.201Z,-56
2022-08-23T01:18:40.741Z,-55
2022-08-23T01:19:36.438Z,-55
2022-08-23T01:21:36.438Z,-55
2022-08-23T01:22:35.742Z,-56
2022-08-23T01:23:31.088Z,-55
2022-08-23T01:25:06.052Z,-56
2022-08-23T01:25:07.110Z,-56
2022-08-23T01:26:29.494Z,-56
2022-08-23T01:27:32.202Z,-55
2022-08-23T01:28:27.718Z,-55
2022-08-23T01:29:27.378Z,-55
2022-08-23T01:31:29.812Z,-55
2022-08-23T01:32:25.014Z,-55
2022-08-23T01:33:25.070Z,-55
2022-08-23T01:34:24.687Z,-55
2022-08-23T01:35:28.791Z,-55
2022-08-23T01:36:22.626Z,-55
2022-08-23T01:37:25.099Z,-56
2022-08-23T01:38:25.917Z,-55
2022-08-23T01:39:23.967Z,-55
2022-08-23T01:41:24.004Z,-55
2022-08-23T01:42:23.723Z,-56
2022-08-23T01:43:21.113Z,-55
2022-08-23T01:44:27.432Z,-55
2022-08-23T01:46:59.191Z,-55
2022-08-23T01:47:58.195Z,-54
2022-08-23T01:49:04.520Z,-55
2022-08-23T01:49:08.416Z,-55
2022-08-23T01:50:03.333Z,-55
2022-08-23T01:51:01.915Z,-55
2022-08-23T01:52:07.269Z,-56
2022-08-23T01:53:03.794Z,-56
2022-08-23T01:54:05.798Z,-56
2022-08-23T01:56:05.566Z,-56
2022-08-23T01:57:01.868Z,-55
2022-08-23T01:58:04.432Z,-56
2022-08-23T01:59:13.801Z,-56
2022-08-23T02:00:15.600Z,-56
2022-08-23T02:01:17.424Z,-55
2022-08-23T02:02:18.680Z,-55
2022-08-23T02:03:15.815Z,-56
2022-08-23T02:04:16.106Z,-55
2022-08-23T02:05:13.695Z,-55
2022-08-23T02:05:19.146Z,-55
2022-08-23T02:06:17.555Z,-56
2022-08-23T02:07:14.708Z,-55
2022-08-23T02:08:15.672Z,-55
2022-08-23T02:09:19.505Z,-55
2022-08-23T02:11:24.251Z,-57
2022-08-23T02:12:20.120Z,-55
2022-08-23T02:13:21.134Z,-56
2022-08-23T02:14:22.540Z,-55
2022-08-23T02:15:16.831Z,-55
2022-08-23T02:16:26.299Z,-55
2022-08-23T02:17:20.214Z,-55
2022-08-23T02:18:20.850Z,-56
2022-08-23T02:19:20.460Z,-56
2022-08-23T02:21:24.493Z,-56
2022-08-23T02:26:05.150Z,-56
2022-08-23T02:27:05.382Z,-56
2022-08-23T02:28:03.464Z,-55
2022-08-23T02:29:03.458Z,-56
2022-08-23T02:29:59.739Z,-57
2022-08-23T02:31:01.384Z,-56
2022-08-23T02:31:55.725Z,-57
2022-08-23T02:32:55.007Z,-58
2022-08-23T02:33:52.909Z,-56
2022-08-23T02:35:05.251Z,-55
2022-08-23T02:35:05.619Z,-55
2022-08-23T02:36:50.904Z,-57
2022-08-23T02:37:52.802Z,-57
2022-08-23T02:38:48.121Z,-58
2022-08-23T02:39:53.679Z,-57
2022-08-23T02:40:46.202Z,-58
2022-08-23T02:41:44.310Z,-55
2022-08-23T02:42:40.804Z,-55
2022-08-23T02:43:41.249Z,-55
2022-08-23T02:44:37.967Z,-55
2022-08-23T02:46:32.018Z,-55
2022-08-23T02:47:31.061Z,-56
2022-08-23T02:48:25.383Z,-55
2022-08-23T02:49:27.410Z,-55
2022-08-23T02:51:21.161Z,-56
2022-08-23T02:52:12.927Z,-58
2022-08-23T02:53:16.035Z,-55
2022-08-23T02:54:10.568Z,-57
2022-08-23T02:55:13.179Z,-56
2022-08-23T02:56:07.457Z,-57
2022-08-23T02:56:21.184Z,-57
2022-08-23T02:56:21.461Z,-57
2022-08-23T02:57:15.362Z,-55
2022-08-23T02:58:11.017Z,-57
2022-08-23T02:59:13.280Z,-56
2022-08-23T03:01:10.316Z,-56
2022-08-23T03:02:09.249Z,-55
2022-08-23T03:03:09.627Z,-55
2022-08-23T03:04:03.903Z,-55
2022-08-23T03:06:24.817Z,-55
2022-08-23T03:06:24.952Z,-55
2022-08-23T03:06:25.512Z,-55
2022-08-23T03:07:03.877Z,-55
2022-08-23T03:07:59.276Z,-56
2022-08-23T03:08:58.057Z,-55
2022-08-23T03:09:53.880Z,-55
2022-08-23T03:10:53.300Z,-57
2022-08-23T03:11:48.856Z,-55
2022-08-23T03:12:47.848Z,-55
2022-08-23T03:13:46.075Z,-55
2022-08-23T03:14:42.964Z,-55
2022-08-23T03:17:20.683Z,-55
2022-08-23T03:18:17.249Z,-56
2022-08-23T03:19:12.490Z,-55
2022-08-23T03:21:07.638Z,-55
2022-08-23T03:22:06.884Z,-55
2022-08-23T03:23:10.314Z,-55
2022-08-23T03:24:10.577Z,-55
2022-08-23T03:25:09.069Z,-55
2022-08-23T03:26:12.786Z,-55
2022-08-23T03:27:08.556Z,-55
2022-08-23T03:28:09.443Z,-56
2022-08-23T03:29:05.590Z,-55
2022-08-23T03:31:05.306Z,-54
2022-08-23T03:32:07.170Z,-56
2022-08-23T03:33:03.927Z,-55
2022-08-23T03:34:20.997Z,-55
2022-08-23T03:36:12.442Z,-56
2022-08-23T03:37:09.869Z,-55
2022-08-23T03:38:09.497Z,-55
2022-08-23T03:39:04.284Z,-56
2022-08-23T03:40:03.619Z,-54
2022-08-23T03:41:03.602Z,-55
2022-08-23T03:42:06.705Z,-56
2022-08-23T03:43:03.061Z,-55
2022-08-23T03:44:05.972Z,-56
2022-08-23T03:45:02.229Z,-56
2022-08-23T03:46:56.866Z,-55
2022-08-23T03:47:59.659Z,-57
2022-08-23T03:48:59.597Z,-57
2022-08-23T03:49:55.216Z,-55
2022-08-23T03:51:00.932Z,-56
2022-08-23T03:51:56.262Z,-56
2022-08-23T03:52:54.893Z,-55
2022-08-23T03:53:50.149Z,-55
2022-08-23T03:54:49.288Z,-56
2022-08-23T03:55:56.919Z,-55
2022-08-23T03:56:55.714Z,-55
2022-08-23T03:57:54.985Z,-55
2022-08-23T03:58:59.465Z,-55
2022-08-23T04:01:29.059Z,-55
2022-08-23T04:02:30.660Z,-55
2022-08-23T04:03:31.505Z,-55
2022-08-23T04:04:29.567Z,-56
2022-08-23T04:06:33.905Z,-55
2022-08-23T04:07:31.808Z,-55
2022-08-23T04:08:34.088Z,-55
2022-08-23T04:09:30.947Z,-55
2022-08-23T04:10:33.274Z,-56
2022-08-23T04:11:29.712Z,-55
2022-08-23T04:12:34.483Z,-55
2022-08-23T04:13:32.933Z,-55
2022-08-23T04:14:34.029Z,-55
2022-08-23T04:15:33.548Z,-56
2022-08-23T04:16:35.826Z,-57
2022-08-23T04:17:40.684Z,-55
2022-08-23T04:18:37.759Z,-55
2022-08-23T04:19:43.073Z,-56
2022-08-23T04:21:38.323Z,-55
2022-08-23T04:22:35.921Z,-55
2022-08-23T04:23:38.863Z,-55
2022-08-23T04:24:34.649Z,-56
2022-08-23T04:25:39.853Z,-56
2022-08-23T04:26:36.900Z,-56
2022-08-23T04:27:41.156Z,-55
2022-08-23T04:28:37.516Z,-55
2022-08-23T04:29:39.370Z,-55
2022-08-23T04:31:43.843Z,-55
2022-08-23T04:32:47.095Z,-55
2022-08-23T04:33:43.923Z,-55
2022-08-23T04:34:45.799Z,-55
2022-08-23T04:34:51.477Z,-55
2022-08-23T04:36:51.722Z,-55
2022-08-23T04:36:52.537Z,-55
2022-08-23T04:36:55.343Z,-55
2022-08-23T04:37:44.072Z,-55
2022-08-23T04:38:50.321Z,-55
2022-08-23T04:39:51.770Z,-55
2022-08-23T04:40:51.215Z,-55
2022-08-23T04:41:57.945Z,-57
2022-08-23T04:42:58.808Z,-57
2022-08-23T04:43:59.082Z,-56
2022-08-23T04:46:31.783Z,-55
2022-08-23T04:47:29.777Z,-55
2022-08-23T04:48:29.653Z,-58
2022-08-23T04:49:25.046Z,-57
2022-08-23T04:51:31.237Z,-57
2022-08-23T04:52:33.377Z,-58
2022-08-23T04:53:29.633Z,-55
2022-08-23T04:54:30.263Z,-55
2022-08-23T04:56:26.654Z,-54
2022-08-23T04:57:26.557Z,-55
2022-08-23T04:58:22.330Z,-55
2022-08-23T04:59:26.450Z,-55
2022-08-23T05:00:19.887Z,-56
2022-08-23T05:01:19.221Z,-55
2022-08-23T05:02:13.944Z,-55
2022-08-23T05:03:14.332Z,-55
2022-08-23T05:04:12.347Z,-55
2022-08-23T05:06:06.065Z,-55
2022-08-23T05:07:06.792Z,-55
2022-08-23T05:08:02.378Z,-55
2022-08-23T05:09:07.737Z,-56
2022-08-23T05:10:01.014Z,-55
2022-08-23T05:11:58.510Z,-55
2022-08-23T05:12:59.006Z,-56
2022-08-23T05:13:56.893Z,-55
2022-08-23T05:14:59.591Z,-56
2022-08-23T05:16:54.298Z,-55
2022-08-23T05:17:49.438Z,-55
2022-08-23T05:18:50.373Z,-56
2022-08-23T05:19:47.132Z,-55
2022-08-23T05:20:47.358Z,-55
2022-08-23T05:21:40.377Z,-55
2022-08-23T05:22:41.556Z,-56
2022-08-23T05:23:40.264Z,-55
2022-08-23T05:24:37.590Z,-56
2022-08-23T05:26:32.266Z,-56
2022-08-23T05:27:34.386Z,-58
2022-08-23T05:29:43.238Z,-54
2022-08-23T05:30:47.891Z,-57
2022-08-23T05:30:56.594Z,-57
2022-08-23T05:30:57.280Z,-57
2022-08-23T05:31:43.091Z,-57
2022-08-23T05:32:38.390Z,-55
2022-08-23T05:33:38.609Z,-56
2022-08-23T05:34:35.680Z,-55
2022-08-23T05:36:36.175Z,-55
2022-08-23T05:37:36.374Z,-55
2022-08-23T05:38:31.572Z,-55
2022-08-23T05:39:36.448Z,-56
2022-08-23T05:41:37.668Z,-56
2022-08-23T05:41:38.026Z,-56
2022-08-23T05:42:29.551Z,-55
2022-08-23T05:43:25.369Z,-55
2022-08-23T05:44:25.687Z,-56
2022-08-23T05:45:23.776Z,-55
2022-08-23T05:46:26.624Z,-55
2022-08-23T05:46:28.453Z,-55
2022-08-23T05:47:24.863Z,-55
2022-08-23T05:48:18.770Z,-56
2022-08-23T05:49:16.896Z,-55
2022-08-23T05:51:14.099Z,-55
2022-08-23T05:52:18.420Z,-56
2022-08-23T05:53:12.845Z,-55
2022-08-23T05:54:15.367Z,-55
2022-08-23T05:55:08.600Z,-55
2022-08-23T05:56:08.448Z,-56
2022-08-23T05:57:04.628Z,-55
2022-08-23T05:58:04.340Z,-56
2022-08-23T05:59:00.969Z,-55
2022-08-23T06:00:00.788Z,-56
2022-08-23T06:01:02.130Z,-55
2022-08-23T06:01:54.863Z,-55
2022-08-23T06:02:58.273Z,-56
2022-08-23T06:03:50.973Z,-55
2022-08-23T06:04:57.429Z,-56
2022-08-23T06:06:47.873Z,-55
2022-08-23T06:07:48.219Z,-55
2022-08-23T06:08:43.683Z,-55
2022-08-23T06:09:44.029Z,-56
2022-08-23T06:10:42.362Z,-55
2022-08-23T06:11:37.804Z,-55
2022-08-23T06:12:38.068Z,-56
2022-08-23T06:13:35.041Z,-56
2022-08-23T06:14:34.261Z,-55
2022-08-23T06:16:28.461Z,-55
2022-08-23T06:17:32.066Z,-55
2022-08-23T06:18:28.657Z,-55
2022-08-23T06:20:07.873Z,-55
2022-08-23T06:22:58.541Z,-54
2022-08-23T06:23:58.198Z,-55
2022-08-23T06:24:53.554Z,-56
2022-08-23T06:25:53.629Z,-55
2022-08-23T06:26:47.174Z,-55
2022-08-23T06:27:47.793Z,-56
2022-08-23T06:28:51.063Z,-55
2022-08-23T06:28:51.086Z,-55
2022-08-23T06:29:42.773Z,-55
2022-08-23T06:31:37.423Z,-57
2022-08-23T06:32:31.288Z,-55
2022-08-23T06:33:30.318Z,-56
2022-08-23T06:34:24.711Z,-57
2022-08-23T06:35:38.011Z,-57
2022-08-23T06:35:39.298Z,-57
2022-08-23T06:36:20.841Z,-57
2022-08-23T06:37:14.580Z,-56
2022-08-23T06:38:13.098Z,-55
2022-08-23T06:39:07.085Z,-55
2022-08-23T06:40:08.489Z,-55
2022-08-23T06:42:13.259Z,-57
2022-08-23T06:42:28.007Z,-57
2022-08-23T06:42:58.757Z,-55
2022-08-23T06:43:52.805Z,-55
2022-08-23T06:44:51.350Z,-56
2022-08-23T06:46:46.810Z,-55
2022-08-23T06:47:38.551Z,-55
2022-08-23T06:48:36.371Z,-56
2022-08-23T06:49:33.499Z,-54
2022-08-23T06:49:39.701Z,-55
2022-08-23T06:50:38.614Z,-53
2022-08-23T06:51:34.473Z,-56
2022-08-23T06:52:33.382Z,-57
2022-08-23T06:53:27.751Z,-55
2022-08-23T06:54:26.703Z,-55
2022-08-23T06:56:19.852Z,-56
2022-08-23T06:57:15.043Z,-55
2022-08-23T06:58:16.701Z,-55
2022-08-23T06:59:08.479Z,-56
2022-08-23T07:00:09.854Z,-56
2022-08-23T07:01:01.730Z,-55
2022-08-23T07:02:03.242Z,-56
2022-08-23T07:02:57.568Z,-55
2022-08-23T07:03:57.703Z,-56
2022-08-23T07:04:54.475Z,-56
2022-08-23T07:06:47.810Z,-56
2022-08-23T07:07:44.315Z,-56
2022-08-23T07:08:41.364Z,-55
2022-08-23T07:09:36.713Z,-56
2022-08-23T07:11:30.107Z,-55
2022-08-23T07:12:32.005Z,-55
2022-08-23T07:13:24.297Z,-55
2022-08-23T07:14:26.111Z,-56
2022-08-23T07:15:18.093Z,-55
2022-08-23T07:17:12.952Z,-55
2022-08-23T07:18:14.634Z,-55
2022-08-23T07:19:07.249Z,-56
2022-08-23T07:20:09.365Z,-56
2022-08-23T07:21:04.174Z,-55
2022-08-23T07:22:01.370Z,-56
2022-08-23T07:22:57.606Z,-55
2022-08-23T07:23:55.952Z,-55
2022-08-23T07:24:50.755Z,-55
2022-08-23T07:25:50.487Z,-56
2022-08-23T07:26:45.880Z,-54
2022-08-23T07:27:45.490Z,-54
2022-08-23T07:28:40.778Z,-54
2022-08-23T07:29:40.520Z,-54
2022-08-23T07:31:35.475Z,-54
2022-08-23T07:32:30.388Z,-55
2022-08-23T07:33:33.570Z,-56
2022-08-23T07:35:12.749Z,-55
2022-08-23T07:36:12.194Z,-55
2022-08-23T07:37:11.449Z,-55
2022-08-23T07:37:15.730Z,-55
2022-08-23T07:38:07.646Z,-56
2022-08-23T07:39:03.105Z,-56
2022-08-23T07:40:39.248Z,-56
2022-08-23T07:43:35.987Z,-55
2022-08-23T07:44:36.598Z,-56
2022-08-23T07:46:34.398Z,-56
2022-08-23T07:47:36.392Z,-56
2022-08-23T07:48:53.096Z,-56
2022-08-23T07:48:53.441Z,-56
2022-08-23T07:48:53.892Z,-56
2022-08-23T07:49:32.956Z,-56
2022-08-23T07:50:34.619Z,-58
2022-08-23T07:51:31.646Z,-55
2022-08-23T07:52:33.113Z,-57
2022-08-23T07:53:37.661Z,-57
2022-08-23T07:53:37.752Z,-57
2022-08-23T07:54:31.818Z,-58
2022-08-23T07:56:32.931Z,-56
2022-08-23T07:57:27.226Z,-55
2022-08-23T07:58:27.124Z,-55
2022-08-23T07:59:32.738Z,-56
2022-08-23T07:59:34.739Z,-56
2022-08-23T08:01:27.709Z,-56
2022-08-23T08:02:24.557Z,-56
2022-08-23T08:03:26.595Z,-56
2022-08-23T08:04:23.730Z,-56
2022-08-23T08:05:25.246Z,-56
2022-08-23T08:06:24.868Z,-55
2022-08-23T08:07:21.817Z,-55
2022-08-23T08:08:23.565Z,-57
2022-08-23T08:09:20.373Z,-55
2022-08-23T08:10:22.371Z,-56
2022-08-23T08:11:20.530Z,-56
2022-08-23T08:12:21.024Z,-56
2022-08-23T08:13:18.071Z,-56
2022-08-23T08:14:19.828Z,-56
2022-08-23T08:15:17.055Z,-56
2022-08-23T08:17:15.610Z,-55
2022-08-23T08:18:25.637Z,-57
2022-08-23T08:19:19.750Z,-58
2022-08-23T08:20:16.312Z,-56
2022-08-23T08:22:16.370Z,-56
2022-08-23T08:23:17.920Z,-57
2022-08-23T08:24:16.292Z,-56
2022-08-23T08:25:19.666Z,-55
2022-08-23T08:27:16.623Z,-55
2022-08-23T08:28:16.443Z,-56
2022-08-23T08:29:13.776Z,-56
2022-08-23T08:30:16.017Z,-57
2022-08-23T08:31:14.244Z,-56
2022-08-23T08:32:18.307Z,-55
2022-08-23T08:33:13.260Z,-56
2022-08-23T08:34:18.697Z,-55
2022-08-23T08:35:16.224Z,-56
2022-08-23T08:37:19.074Z,-55
2022-08-23T08:38:14.313Z,-55
2022-08-23T08:39:16.508Z,-55
2022-08-23T08:40:14.570Z,-55
2022-08-23T08:42:16.410Z,-55
2022-08-23T08:43:14.573Z,-53
2022-08-23T08:44:18.964Z,-56
2022-08-23T08:45:14.035Z,-56
2022-08-23T08:46:16.586Z,-57
2022-08-23T08:47:14.052Z,-55
2022-08-23T08:48:19.071Z,-55
2022-08-23T08:49:14.382Z,-56
2022-08-23T08:50:19.556Z,-56
2022-08-23T08:52:24.500Z,-55
2022-08-23T08:53:23.028Z,-56
2022-08-23T08:54:23.992Z,-56
2022-08-23T08:55:19.958Z,-55
2022-08-23T08:57:16.869Z,-56
2022-08-23T08:58:17.844Z,-56
2022-08-23T08:59:13.894Z,-55
2022-08-23T09:00:14.921Z,-56
2022-08-23T09:02:31.946Z,-55
2022-08-23T09:02:33.154Z,-55
2022-08-23T09:03:11.535Z,-56
2022-08-23T09:04:08.093Z,-56
2022-08-23T09:05:08.982Z,-56
2022-08-23T09:06:05.625Z,-56
2022-08-23T09:07:06.789Z,-56
2022-08-23T09:08:03.363Z,-56
2022-08-23T09:09:04.103Z,-56
2022-08-23T09:10:01.177Z,-56
2022-08-23T09:11:58.119Z,-56
2022-08-23T09:12:56.577Z,-55
2022-08-23T09:14:00.085Z,-56
2022-08-23T09:14:53.634Z,-59
2022-08-23T09:16:51.599Z,-59
2022-08-23T09:17:54.479Z,-58
2022-08-23T09:18:48.172Z,-59
2022-08-23T09:19:51.626Z,-59
2022-08-23T09:21:43.962Z,-59
2022-08-23T09:22:44.781Z,-61
2022-08-23T09:23:40.982Z,-59
2022-08-23T09:24:44.258Z,-59
2022-08-23T09:25:38.556Z,-58
2022-08-23T09:26:41.382Z,-59
2022-08-23T09:27:35.069Z,-59
2022-08-23T09:28:33.564Z,-58
2022-08-23T09:29:34.606Z,-59
2022-08-23T09:31:08.300Z,-60
2022-08-23T09:34:08.857Z,-60
2022-08-23T09:35:11.528Z,-58
2022-08-23T09:37:10.568Z,-60
2022-08-23T09:38:07.921Z,-58
2022-08-23T09:39:09.678Z,-58
2022-08-23T09:40:06.483Z,-59
2022-08-23T09:41:08.223Z,-59
2022-08-23T09:42:05.492Z,-58
2022-08-23T09:43:07.713Z,-59
2022-08-23T09:44:05.093Z,-58
2022-08-23T09:45:06.429Z,-61
2022-08-23T09:46:03.758Z,-58
2022-08-23T09:47:04.883Z,-59
2022-08-23T09:48:02.257Z,-58
2022-08-23T09:49:04.036Z,-58
2022-08-23T09:50:00.532Z,-58
2022-08-23T09:51:58.859Z,-58
2022-08-23T09:53:00.354Z,-57
2022-08-23T09:53:57.081Z,-58
2022-08-23T09:54:58.449Z,-61
2022-08-23T09:55:57.836Z,-58
2022-08-23T09:56:54.997Z,-61
2022-08-23T09:57:55.805Z,-58
2022-08-23T09:58:52.229Z,-60
2022-08-23T09:59:54.203Z,-58
2022-08-23T10:01:52.336Z,-58
2022-08-23T10:02:48.912Z,-59
2022-08-23T10:03:50.265Z,-60
2022-08-23T10:04:46.685Z,-59
2022-08-23T10:06:45.025Z,-58
2022-08-23T10:07:49.021Z,-58
2022-08-23T10:08:43.527Z,-59
2022-08-23T10:09:47.201Z,-58
2022-08-23T10:11:42.851Z,-58
2022-08-23T10:12:39.460Z,-58
2022-08-23T10:13:41.380Z,-58
2022-08-23T10:16:44.425Z,-58
2022-08-23T10:17:44.917Z,-61
2022-08-23T10:18:41.014Z,-58
2022-08-23T10:19:40.944Z,-58
2022-08-23T10:20:37.048Z,-58
2022-08-23T10:21:36.999Z,-58
2022-08-23T10:22:32.810Z,-59
2022-08-23T10:23:35.934Z,-58
2022-08-23T10:24:30.268Z,-59
2022-08-23T10:25:27.859Z,-59
2022-08-23T10:27:24.101Z,-59
2022-08-23T10:28:26.230Z,-59
2022-08-23T10:29:19.120Z,-58
2022-08-23T10:30:17.114Z,-59
2022-08-23T10:31:14.758Z,-58
2022-08-23T10:32:13.094Z,-60
2022-08-23T10:33:10.716Z,-61
2022-08-23T10:33:18.698Z,-61
2022-08-23T10:34:11.338Z,-58
2022-08-23T10:35:07.124Z,-60
2022-08-23T10:37:04.801Z,-60
2022-08-23T10:38:00.912Z,-58
2022-08-23T10:39:03.312Z,-58
2022-08-23T10:40:00.322Z,-58
2022-08-23T10:40:04.144Z,-58
2022-08-23T10:44:11.407Z,-60
2022-08-23T10:45:13.277Z,-59
2022-08-23T10:47:11.355Z,-58
2022-08-23T10:48:08.498Z,-60
2022-08-23T10:49:09.498Z,-58
2022-08-23T10:50:06.300Z,-58
2022-08-23T10:52:07.065Z,-60
2022-08-23T10:53:04.181Z,-61
2022-08-23T10:54:05.133Z,-58
2022-08-23T10:55:01.823Z,-58
2022-08-23T10:56:03.158Z,-60
2022-08-23T10:56:59.482Z,-58
2022-08-23T10:58:03.445Z,-60
2022-08-23T10:58:57.770Z,-58
2022-08-23T10:59:58.759Z,-58
2022-08-23T11:00:55.991Z,-58
2022-08-23T11:01:57.347Z,-60
2022-08-23T11:02:53.804Z,-58
2022-08-23T11:03:57.427Z,-58
2022-08-23T11:04:51.748Z,-59
2022-08-23T11:05:52.774Z,-58
2022-08-23T11:06:49.117Z,-58
2022-08-23T11:07:51.396Z,-59
2022-08-23T11:08:48.235Z,-58
2022-08-23T11:09:52.156Z,-58
2022-08-23T11:10:56.101Z,-58
2022-08-23T11:10:56.118Z,-58
2022-08-23T11:10:57.137Z,-58
2022-08-23T11:12:47.593Z,-58
2022-08-23T11:13:44.267Z,-58
2022-08-23T11:14:48.778Z,-61
2022-08-23T11:15:44.605Z,-58
2022-08-23T11:16:44.175Z,-59
2022-08-23T11:17:40.682Z,-58
2022-08-23T11:18:44.942Z,-59
2022-08-23T11:19:38.931Z,-59
2022-08-23T11:20:42.812Z,-58
2022-08-23T11:22:37.990Z,-59
2022-08-23T11:23:34.492Z,-58
2022-08-23T11:24:35.571Z,-60
2022-08-23T11:25:34.662Z,-59
2022-08-23T11:26:38.424Z,-59
2022-08-23T11:27:32.931Z,-58
2022-08-23T11:28:36.790Z,-60
2022-08-23T11:31:54.617Z,-58
2022-08-23T11:32:53.908Z,-58
2022-08-23T11:33:49.943Z,-58
2022-08-23T11:34:50.184Z,-58
2022-08-23T11:35:45.490Z,-59
2022-08-23T11:36:45.681Z,-59
2022-08-23T11:37:41.496Z,-58
2022-08-23T11:38:44.600Z,-60
2022-08-23T11:39:39.782Z,-59
2022-08-23T11:40:39.950Z,-60
2022-08-23T11:42:36.183Z,-58
2022-08-23T11:43:31.683Z,-60
2022-08-23T11:44:32.133Z,-58
2022-08-23T11:45:27.443Z,-59
2022-08-23T11:47:23.746Z,-59
2022-08-23T11:48:23.906Z,-60
2022-08-23T11:49:19.188Z,-58
2022-08-23T11:50:17.882Z,-60
2022-08-23T11:52:12.600Z,-58
2022-08-23T11:53:10.455Z,-58
2022-08-23T11:54:14.466Z,-59
2022-08-23T11:55:06.911Z,-58
2022-08-23T11:56:04.787Z,-57
2022-08-23T11:57:04.994Z,-59
2022-08-23T11:58:00.610Z,-58
2022-08-23T11:59:08.688Z,-60
2022-08-23T12:00:47.305Z,-58
2022-08-23T12:02:41.695Z,-58
2022-08-23T12:03:40.983Z,-60
2022-08-23T12:06:01.505Z,-59
2022-08-23T12:07:04.745Z,-58
2022-08-23T12:08:02.018Z,-58
2022-08-23T12:09:02.595Z,-59
2022-08-23T12:09:58.159Z,-58
2022-08-23T12:10:56.990Z,-58
2022-08-23T12:12:52.989Z,-58
2022-08-23T12:13:53.761Z,-60
2022-08-23T12:14:49.166Z,-58
2022-08-23T12:15:49.509Z,-59
2022-08-23T12:17:49.412Z,-59
2022-08-23T12:18:42.057Z,-58
2022-08-23T12:18:47.683Z,-58
2022-08-23T12:19:46.482Z,-58
2022-08-23T12:20:39.870Z,-59
2022-08-23T12:21:42.648Z,-58
2022-08-23T12:22:36.018Z,-58
2022-08-23T12:23:37.791Z,-60
2022-08-23T12:24:33.226Z,-59
2022-08-23T12:25:36.806Z,-61
2022-08-23T12:27:34.867Z,-58
2022-08-23T12:28:28.477Z,-58
2022-08-23T12:29:26.264Z,-58
2022-08-23T12:30:27.430Z,-60
2022-08-23T12:32:23.979Z,-58
2022-08-23T12:33:19.394Z,-58
2022-08-23T12:34:25.554Z,-58
2022-08-23T12:35:19.035Z,-58
2022-08-23T12:37:15.709Z,-58
2022-08-23T12:38:15.579Z,-58
2022-08-23T12:39:10.920Z,-58
2022-08-23T12:40:09.917Z,-58
2022-08-23T12:41:11.775Z,-58
2022-08-23T12:42:05.239Z,-58
2022-08-23T12:43:05.134Z,-60
2022-08-23T12:45:21.827Z,-60
2022-08-23T12:46:19.358Z,-60
2022-08-23T12:47:19.370Z,-58
2022-08-23T12:48:14.716Z,-58
2022-08-23T12:49:15.139Z,-58
2022-08-23T12:50:09.529Z,-58
2022-08-23T12:51:09.020Z,-59
2022-08-23T12:52:05.075Z,-60
2022-08-23T12:53:05.296Z,-60
2022-08-23T12:54:03.303Z,-59
2022-08-23T12:55:02.122Z,-58
2022-08-23T12:55:57.222Z,-59
2022-08-23T12:56:56.470Z,-58
2022-08-23T12:57:51.694Z,-58
2022-08-23T12:58:51.173Z,-58
2022-08-23T12:59:46.238Z,-57
2022-08-23T13:00:46.144Z,-58
2022-08-23T13:02:40.989Z,-58
2022-08-23T13:03:36.312Z,-58
2022-08-23T13:04:35.613Z,-58
2022-08-23T13:05:30.758Z,-61
2022-08-23T13:06:32.883Z,-59
2022-08-23T13:07:25.451Z,-58
2022-08-23T13:08:34.376Z,-60
2022-08-23T13:08:34.812Z,-60
2022-08-23T13:09:23.384Z,-58
2022-08-23T13:10:18.724Z,-58
2022-08-23T13:12:13.885Z,-58
2022-08-23T13:13:10.872Z,-60
2022-08-23T13:14:10.345Z,-60
2022-08-23T13:15:05.091Z,-58
2022-08-23T13:16:07.369Z,-58
2022-08-23T13:16:59.845Z,-58
2022-08-23T13:18:02.329Z,-60
2022-08-23T13:18:54.812Z,-58
2022-08-23T13:19:57.025Z,-60
2022-08-23T13:20:49.527Z,-60
2022-08-23T13:22:50.868Z,-58
2022-08-23T13:23:44.343Z,-60
2022-08-23T13:24:57.361Z,-58
2022-08-23T13:25:11.711Z,-58
2022-08-23T13:25:45.244Z,-58
2022-08-23T13:27:43.185Z,-61
2022-08-23T13:28:38.453Z,-60
2022-08-23T13:29:40.376Z,-60
2022-08-23T13:30:34.026Z,-58
2022-08-23T13:31:31.826Z,-58
2022-08-23T13:32:31.531Z,-58
2022-08-23T13:34:35.743Z,-61
2022-08-23T13:35:34.372Z,-59
2022-08-23T13:37:35.022Z,-58
2022-08-23T13:38:30.374Z,-60
2022-08-23T13:39:30.039Z,-60
2022-08-23T13:40:29.365Z,-59
2022-08-23T13:42:25.971Z,-58
2022-08-23T13:43:24.231Z,-58
2022-08-23T13:44:19.839Z,-58
2022-08-23T13:44:31.587Z,-59
2022-08-23T13:45:27.829Z,-60
2022-08-23T13:47:26.147Z,-59
2022-08-23T13:48:20.392Z,-58
2022-08-23T13:49:20.478Z,-58
2022-08-23T13:50:16.115Z,-58
2022-08-23T13:51:16.216Z,-58
2022-08-23T13:52:45.514Z,-58
2022-08-23T13:53:14.801Z,-58
2022-08-23T13:54:14.074Z,-60
2022-08-23T13:55:07.507Z,-59
2022-08-23T13:56:08.555Z,-60
2022-08-23T13:57:05.147Z,-58
2022-08-23T13:58:05.922Z,-60
2022-08-23T13:59:02.344Z,-58
2022-08-23T14:00:02.169Z,-58
2022-08-23T14:00:58.839Z,-58
2022-08-23T14:02:54.669Z,-58
2022-08-23T14:03:54.992Z,-58
2022-08-23T14:04:50.485Z,-58
2022-08-23T14:05:53.028Z,-58
2022-08-23T14:06:48.694Z,-58
2022-08-23T14:07:46.433Z,-58
2022-08-23T14:08:41.854Z,-58
2022-08-23T14:09:42.109Z,-58
2022-08-23T14:10:37.491Z,-59
2022-08-23T14:12:33.466Z,-58
2022-08-23T14:13:36.216Z,-58
2022-08-23T14:14:29.082Z,-58
2022-08-23T14:16:46.932Z,-60
2022-08-23T14:17:44.984Z,-58
2022-08-23T14:20:32.317Z,-58
2022-08-23T14:20:46.240Z,-58
2022-08-23T14:22:38.131Z,-60
2022-08-23T14:23:38.642Z,-58
2022-08-23T14:24:33.849Z,-58
2022-08-23T14:25:35.644Z,-58
2022-08-23T14:26:28.100Z,-59
2022-08-23T14:27:28.784Z,-58
2022-08-23T14:28:23.485Z,-59
2022-08-23T14:29:23.400Z,-59
2022-08-23T14:30:18.700Z,-58
2022-08-23T14:31:20.272Z,-58
2022-08-23T14:33:12.916Z,-60
2022-08-23T14:34:08.669Z,-59
2022-08-23T14:35:11.024Z,-60
2022-08-23T14:36:05.575Z,-58
2022-08-23T14:38:02.500Z,-59
2022-08-23T14:38:08.163Z,-58
2022-08-23T14:38:14.190Z,-58
2022-08-23T14:39:03.023Z,-58
2022-08-23T14:39:58.662Z,-59
2022-08-23T14:41:00.917Z,-58
2022-08-23T14:42:53.449Z,-58
2022-08-23T14:43:48.648Z,-59
2022-08-23T14:44:48.385Z,-58
2022-08-23T14:45:43.116Z,-59
2022-08-23T14:47:39.526Z,-60
2022-08-23T14:48:34.197Z,-58
2022-08-23T14:49:33.512Z,-60
2022-08-23T14:50:34.476Z,-58
2022-08-23T14:52:27.949Z,-58
2022-08-23T14:53:22.562Z,-60
2022-08-23T14:54:21.992Z,-58
2022-08-23T14:55:16.828Z,-58
2022-08-23T14:56:21.704Z,-58
2022-08-23T14:58:46.067Z,-60
2022-08-23T14:59:40.928Z,-58
2022-08-23T15:00:41.109Z,-59
2022-08-23T15:03:12.767Z,-60
2022-08-23T15:04:12.556Z,-58